Rich Square, North Carolina
Current Conditions -  °F | °C
As of 4:55 AM on Wednesday 26 Nov 2014 (Local Time) from KASJ Reporting Station
Moderate Rain Moderate Rain  
Wind Chill: 42°   Ceiling: 1400
Heat Index: 48°   Visibility: 5mi
Dew Point: 47°   Wind: 20mph
Humidity: 93%   Direction: 20°NNE
Pressure: 29.9"   Gusts: 30mph
Location:  36.27°N, 77.28°W
Report Text: KASJ 260955Z AUTO 02017G26KT 5SM RA SCT009 BKN014 OVC019 09/08 A2990 RMK AO2 P0017 T00910081
Loading
Personal Weather Stations






























Interactive Weather Map New forecast layout! Learn more

10-Day Weather Forecast

Advertisements
Track Severe Weather on mobile